x

North Huron - 32nm Northeast Of Alpena, Mi (45003) Wave Buoy

2:50pm - Tue 29th Jul 2014 All times are CDT. -5 hours from GMT.

  • Sig Wave height 1.6ft
  • Swell Direction
  • Peak Period 4s
  • Average Period 4s
  • Wind
    11mph, 13mph gusts
  • Sea Temp 57°f
  • Air Temp 58°f
  • Sea Pressure 1012.5mb
  • North Huron - 32nm Northeast Of Alpena, Mi
  • North Huron - 32nm Northeast Of Alpena, Mi

More Historic Weather Station data

Upgrade to MSW Pro to gain access to the past 30 days of data for over 8000 Wavebouys and Weather Stations around the globe.

Join Pro

Comparision Forecast

View Surf forecast
   
Tue 07/29 2:50pm 1.6ft 4s 4s 11 13 mph 1012.5mb 57f 58f
1:50pm 2ft 4s 3s 13 16 mph 1012.8mb 57f 57f
12:50pm 1.6ft 4s 3s 13 16 mph 1013.1mb 56f 56f
11:50am 1.6ft 4s 3s 11 13 mph 1013.1mb 56f 57f
10:50am 1.6ft 4s 3s 11 13 mph 1013.2mb 56f 56f
9:50am 1.6ft 4s 3s 13 16 mph 1013.1mb 56f 57f
8:50am 1ft 3s 3s 16 18 mph 1012.8mb 56f 57f
7:50am 1ft 3s 3s 9
mph
1012.8mb 56f 58f
6:50am 1ft 3s 3s 4 7 mph 1012.8mb 56f 57f
5:50am 1ft 4s 3s 7
mph
1012.8mb 56f 57f
4:50am 1.3ft 4s 3s 7
mph
1012.7mb 56f 57f
3:50am 1.6ft 4s 4s 7 9 mph 1012.8mb 56f 57f
2:50am 2ft 4s 4s 7 9 mph 1013.2mb 56f 57f
1:50am 2.5ft 4s 4s 11 13 mph 1013.2mb 56f 58f
12:50am 2ft 4s 4s 11 13 mph 1013.8mb 56f 58f
Mon 07/28 11:50pm 2ft 4s 4s 9 11 mph 1014.2mb 56f 57f
10:50pm 1.6ft 4s 4s 7 9 mph 1014.4mb 56f 58f
9:50pm 1.6ft 4s 3s 9 11 mph 1014.8mb 56f 58f
8:50pm 1.6ft 4s 3s 11 13 mph 1014.7mb 56f 58f
7:50pm 1.6ft 4s 3s 11 13 mph 1014.7mb 56f 59f
6:50pm 1.6ft 4s 3s 11 16 mph 1014.6mb 56f 59f
5:50pm 1.6ft 4s 3s 11
mph
1014.5mb 57f 59f
4:50pm 1.6ft 4s 3s 13 16 mph 1014.4mb 57f 59f
3:50pm 2ft 4s 3s 13 16 mph 1014.4mb 57f 59f
2:50pm 2.5ft 4s 4s 13 18 mph 1014.4mb 58f 59f
1:50pm 2.5ft 4s 4s 18 20 mph 1014.3mb 57f 58f
12:50pm 2.5ft 4s 4s 16 18 mph 1014.4mb 57f 57f
11:50am 3ft 4s 4s 16 20 mph 1014.5mb 56f 56f
10:50am 3ft 4s 4s 13 16 mph 1014.4mb 56f 56f
9:50am 3.5ft 5s 4s 16 18 mph 1014.2mb 56f 55f
8:50am 4ft 5s 4s 16 22 mph 1013.8mb 56f 55f
7:50am 3.5ft 5s 4s 20 25 mph 1013.3mb 56f 55f
6:50am 3.5ft 5s 4s 22 27 mph 1012.5mb 57f 55f
5:50am 4ft 5s 4s 22 27 mph 1011.8mb 57f 56f
4:50am 4.5ft 5s 4s 25 29 mph 1011.1mb 58f 57f
3:50am 4ft 5s 4s 27 34 mph 1010.2mb 59f 58f
2:50am 3.5ft 5s 4s 25 29 mph 1009.7mb 60f 60f
1:50am 3.5ft 4s 4s 25 31 mph 1009.5mb 60f 61f
12:50am 2.5ft 4s 3s 22 27 mph 1009.1mb 60f 62f
Sun 07/27 11:50pm 1.3ft 3s 3s 22 27 mph 1008.7mb 60f 63f
10:50pm 0.7ft  -  3s 16 18 mph 1008.1mb 60f 63f
9:50pm 0.7ft  -  3s 9
mph
1007.8mb 60f 62f
8:50pm 1ft 3s 3s 11 13 mph 1007.4mb 60f 63f
7:50pm 1ft 3s 3s 11
mph
1006.5mb 60f 62f
6:50pm 1.3ft 3s 3s 9 11 mph 1006.1mb 60f 62f
5:50pm 1.3ft 3s 3s 13 16 mph 1005.5mb 60f 62f
4:50pm 1ft 2s 3s 13 18 mph 1005.4mb 60f 62f
3:50pm 1ft 3s 3s 11 13 mph 1005.5mb 61f 62f
2:50pm 1ft 3s 3s 9 11 mph 1007mb 61f 62f
1:50pm 1ft 4s 3s 9
mph
1006.7mb 62f 61f
12:50pm 1ft 4s 3s  -  2 mph 1006mb 62f 62f
11:50am 1ft 4s 3s 7 9 mph 1006.3mb 61f 61f
10:50am 1ft 4s 3s 7
mph
1006.2mb 61f 61f
9:50am 1.3ft 4s 3s 4
mph
1005.8mb 60f 61f
8:50am 1.3ft 4s 3s 4 7 mph 1006.1mb 60f 61f
7:50am 1.6ft 4s 3s 9
mph
1006mb 60f 60f
6:50am 2ft 4s 3s 13 16 mph 1005.9mb 60f 60f
5:50am 1.6ft 3s 3s 13 16 mph 1006.2mb 60f 61f
4:50am 1.3ft 3s 3s 18 22 mph 1005.9mb 60f 61f
3:50am 1ft 4s 3s 13 16 mph 1006.3mb 60f 62f
2:50am 0.7ft  -  3s 9 11 mph 1006.4mb 60f 61f
1:50am 1ft 4s 3s 11 13 mph 1006mb 60f 62f
12:50am 1ft 4s 3s 9 11 mph 1005.8mb 60f 61f
Sat 07/26 11:50pm 1.3ft 4s 3s 9
mph
1006.4mb 60f 61f
10:50pm 1.3ft 4s 3s 9
mph
1006.5mb 60f 61f
9:50pm 1.6ft 4s 3s 7 9 mph 1006.8mb 60f 62f
8:50pm 2ft 4s 4s 4 7 mph 1006.9mb 60f 61f
7:50pm 2.5ft 5s 4s 7 9 mph 1006.6mb 60f 62f
6:50pm 2.5ft 4s 4s 7 11 mph 1006.3mb 60f 62f
5:50pm 2.5ft 4s 4s 4 7 mph 1007.4mb 60f 62f
4:50pm 2.5ft 4s 4s 18 22 mph 1006.5mb 60f 63f
3:50pm 1.6ft 3s 3s 18 22 mph 1007mb 60f 62f
2:50pm 1.3ft 3s 3s 13 16 mph 1007.9mb 60f 62f
1:50pm 1ft 3s 3s 13 16 mph 1008.9mb 60f 62f
12:50pm 0.7ft  -  3s 11 13 mph 1009.2mb 60f 61f
11:50am 0.7ft  -  3s 9 11 mph 1009.7mb 60f 61f
10:50am 0.7ft  -  3s 9 11 mph 1010.2mb 59f 61f
9:50am 0.7ft  -  3s 9 11 mph 1010.7mb 59f 61f
8:50am 0.7ft  -  3s 4 7 mph 1011.2mb 59f 59f
7:50am 0.7ft  -  3s 4
mph
1011.2mb 59f 60f
6:50am 0.7ft  -  3s 4
mph
1011.3mb 59f 60f
5:50am 1ft 3s 3s 2
mph
1011.3mb 59f 61f
4:50am 1ft 4s 3s 7
mph
1011.3mb 59f 61f
3:50am 1ft 4s 3s 9 11 mph 1011.3mb 59f 61f
2:50am 1ft 4s 3s 9
mph
1011.4mb 59f 62f
1:50am 1.3ft 4s 4s 9
mph
1011.7mb 59f 61f
12:50am 1.3ft 5s 4s 9 11 mph 1012mb 59f 61f
Fri 07/25 11:50pm 1.3ft 5s 4s 7
mph
1012.2mb 59f 61f
10:50pm 1.6ft 5s 4s 4 7 mph 1012.5mb 59f 61f
9:50pm 2ft 5s 4s 7 9 mph 1012.9mb 60f 62f